sensor_id;sensor_type;location;lat;lon;timestamp;P1;durP1;ratioP1;P2;durP2;ratioP2
19089;SDS011;9677;50.656;13.064;2023-03-12T00:01:25;13.03;;;11.83;;
19089;SDS011;9677;50.656;13.064;2023-03-12T00:03:56;12.73;;;11.70;;
19089;SDS011;9677;50.656;13.064;2023-03-12T00:06:25;12.90;;;11.90;;
19089;SDS011;9677;50.656;13.064;2023-03-12T00:08:55;13.20;;;12.10;;
19089;SDS011;9677;50.656;13.064;2023-03-12T00:11:24;13.27;;;12.17;;
19089;SDS011;9677;50.656;13.064;2023-03-12T00:13:54;13.40;;;12.27;;
19089;SDS011;9677;50.656;13.064;2023-03-12T00:16:25;13.37;;;12.27;;
19089;SDS011;9677;50.656;13.064;2023-03-12T00:18:55;13.40;;;12.27;;
19089;SDS011;9677;50.656;13.064;2023-03-12T00:21:23;13.03;;;11.93;;
19089;SDS011;9677;50.656;13.064;2023-03-12T00:23:52;13.07;;;11.90;;
19089;SDS011;9677;50.656;13.064;2023-03-12T00:26:22;12.93;;;11.83;;
19089;SDS011;9677;50.656;13.064;2023-03-12T00:28:50;13.20;;;12.10;;
19089;SDS011;9677;50.656;13.064;2023-03-12T00:31:20;13.93;;;12.83;;
19089;SDS011;9677;50.656;13.064;2023-03-12T00:33:52;13.07;;;11.97;;
19089;SDS011;9677;50.656;13.064;2023-03-12T00:36:22;12.90;;;11.70;;
19089;SDS011;9677;50.656;13.064;2023-03-12T00:38:53;12.93;;;11.83;;
19089;SDS011;9677;50.656;13.064;2023-03-12T00:41:24;12.63;;;11.53;;
19089;SDS011;9677;50.656;13.064;2023-03-12T00:43:53;13.27;;;12.17;;
19089;SDS011;9677;50.656;13.064;2023-03-12T00:46:22;13.53;;;12.40;;
19089;SDS011;9677;50.656;13.064;2023-03-12T00:48:51;13.20;;;12.10;;
19089;SDS011;9677;50.656;13.064;2023-03-12T00:51:20;12.93;;;11.87;;
19089;SDS011;9677;50.656;13.064;2023-03-12T00:53:49;13.67;;;12.47;;
19089;SDS011;9677;50.656;13.064;2023-03-12T00:56:20;14.37;;;12.97;;
19089;SDS011;9677;50.656;13.064;2023-03-12T00:58:49;12.60;;;11.50;;
19089;SDS011;9677;50.656;13.064;2023-03-12T01:01:21;12.80;;;11.70;;
19089;SDS011;9677;50.656;13.064;2023-03-12T01:03:51;12.77;;;11.77;;
19089;SDS011;9677;50.656;13.064;2023-03-12T01:06:22;13.60;;;12.50;;
19089;SDS011;9677;50.656;13.064;2023-03-12T01:08:51;12.93;;;11.83;;
19089;SDS011;9677;50.656;13.064;2023-03-12T01:11:31;12.73;;;11.63;;
19089;SDS011;9677;50.656;13.064;2023-03-12T01:14:08;12.80;;;11.70;;
19089;SDS011;9677;50.656;13.064;2023-03-12T01:16:46;12.97;;;11.87;;
19089;SDS011;9677;50.656;13.064;2023-03-12T01:19:24;12.57;;;11.57;;
19089;SDS011;9677;50.656;13.064;2023-03-12T01:21:53;12.60;;;11.60;;
19089;SDS011;9677;50.656;13.064;2023-03-12T01:24:22;12.67;;;11.67;;
19089;SDS011;9677;50.656;13.064;2023-03-12T01:26:55;13.07;;;12.07;;
19089;SDS011;9677;50.656;13.064;2023-03-12T01:29:24;12.73;;;11.63;;
19089;SDS011;9677;50.656;13.064;2023-03-12T01:31:53;12.43;;;11.43;;
19089;SDS011;9677;50.656;13.064;2023-03-12T01:34:23;13.10;;;12.00;;
19089;SDS011;9677;50.656;13.064;2023-03-12T01:36:56;12.80;;;11.80;;
19089;SDS011;9677;50.656;13.064;2023-03-12T01:39:27;13.33;;;12.23;;
19089;SDS011;9677;50.656;13.064;2023-03-12T01:41:58;13.47;;;12.37;;
19089;SDS011;9677;50.656;13.064;2023-03-12T01:47:22;13.50;;;12.20;;
19089;SDS011;9677;50.656;13.064;2023-03-12T01:49:53;12.63;;;11.53;;
19089;SDS011;9677;50.656;13.064;2023-03-12T01:52:36;12.30;;;11.30;;
19089;SDS011;9677;50.656;13.064;2023-03-12T01:55:13;12.50;;;11.50;;
19089;SDS011;9677;50.656;13.064;2023-03-12T01:57:48;13.70;;;12.60;;
19089;SDS011;9677;50.656;13.064;2023-03-12T02:00:30;13.23;;;12.13;;
19089;SDS011;9677;50.656;13.064;2023-03-12T02:03:02;13.50;;;12.30;;
19089;SDS011;9677;50.656;13.064;2023-03-12T02:05:39;12.80;;;11.80;;
19089;SDS011;9677;50.656;13.064;2023-03-12T02:08:14;13.07;;;12.07;;
19089;SDS011;9677;50.656;13.064;2023-03-12T02:11:04;12.93;;;11.93;;
19089;SDS011;9677;50.656;13.064;2023-03-12T02:14:16;12.60;;;11.60;;
19089;SDS011;9677;50.656;13.064;2023-03-12T02:16:50;12.57;;;11.47;;
19089;SDS011;9677;50.656;13.064;2023-03-12T02:20:08;13.07;;;12.00;;
19089;SDS011;9677;50.656;13.064;2023-03-12T02:23:04;13.10;;;12.00;;
19089;SDS011;9677;50.656;13.064;2023-03-12T02:26:08;13.23;;;12.03;;
19089;SDS011;9677;50.656;13.064;2023-03-12T02:29:04;12.60;;;11.60;;
19089;SDS011;9677;50.656;13.064;2023-03-12T02:32:46;12.60;;;11.60;;
19089;SDS011;9677;50.656;13.064;2023-03-12T02:38:48;12.57;;;11.57;;
19089;SDS011;9677;50.656;13.064;2023-03-12T02:41:21;12.40;;;11.40;;
19089;SDS011;9677;50.656;13.064;2023-03-12T02:43:59;12.70;;;11.60;;
19089;SDS011;9677;50.656;13.064;2023-03-12T02:46:34;12.73;;;11.73;;
19089;SDS011;9677;50.656;13.064;2023-03-12T02:49:06;12.60;;;11.60;;
19089;SDS011;9677;50.656;13.064;2023-03-12T02:51:42;13.30;;;12.20;;
19089;SDS011;9677;50.656;13.064;2023-03-12T02:54:13;13.50;;;12.40;;
19089;SDS011;9677;50.656;13.064;2023-03-12T02:56:46;13.03;;;12.03;;
19089;SDS011;9677;50.656;13.064;2023-03-12T02:59:16;13.03;;;12.03;;
19089;SDS011;9677;50.656;13.064;2023-03-12T03:01:51;12.87;;;11.87;;
19089;SDS011;9677;50.656;13.064;2023-03-12T03:04:21;13.37;;;12.27;;
19089;SDS011;9677;50.656;13.064;2023-03-12T03:06:50;12.70;;;11.70;;
19089;SDS011;9677;50.656;13.064;2023-03-12T03:09:19;13.80;;;12.60;;
19089;SDS011;9677;50.656;13.064;2023-03-12T03:11:50;13.47;;;12.37;;
19089;SDS011;9677;50.656;13.064;2023-03-12T03:14:19;13.23;;;12.13;;
19089;SDS011;9677;50.656;13.064;2023-03-12T03:16:49;13.27;;;12.20;;
19089;SDS011;9677;50.656;13.064;2023-03-12T03:19:21;12.90;;;11.90;;
19089;SDS011;9677;50.656;13.064;2023-03-12T03:21:57;13.80;;;12.70;;
19089;SDS011;9677;50.656;13.064;2023-03-12T03:24:25;12.60;;;11.60;;
19089;SDS011;9677;50.656;13.064;2023-03-12T03:27:01;13.00;;;12.00;;
19089;SDS011;9677;50.656;13.064;2023-03-12T03:29:33;12.47;;;11.47;;
19089;SDS011;9677;50.656;13.064;2023-03-12T03:32:24;12.67;;;11.57;;
19089;SDS011;9677;50.656;13.064;2023-03-12T03:34:52;13.00;;;11.90;;
19089;SDS011;9677;50.656;13.064;2023-03-12T03:37:21;12.63;;;11.63;;
19089;SDS011;9677;50.656;13.064;2023-03-12T03:39:50;12.67;;;11.67;;
19089;SDS011;9677;50.656;13.064;2023-03-12T03:42:29;12.70;;;11.70;;
19089;SDS011;9677;50.656;13.064;2023-03-12T03:44:57;13.00;;;12.00;;
19089;SDS011;9677;50.656;13.064;2023-03-12T03:47:26;12.93;;;11.93;;
19089;SDS011;9677;50.656;13.064;2023-03-12T03:49:54;12.53;;;11.53;;
19089;SDS011;9677;50.656;13.064;2023-03-12T03:52:23;13.13;;;12.07;;
19089;SDS011;9677;50.656;13.064;2023-03-12T03:54:52;12.80;;;11.80;;
19089;SDS011;9677;50.656;13.064;2023-03-12T03:57:22;13.03;;;11.97;;
19089;SDS011;9677;50.656;13.064;2023-03-12T03:59:53;12.67;;;11.67;;
19089;SDS011;9677;50.656;13.064;2023-03-12T04:02:21;12.60;;;11.60;;
19089;SDS011;9677;50.656;13.064;2023-03-12T04:04:50;13.23;;;12.23;;
19089;SDS011;9677;50.656;13.064;2023-03-12T04:07:19;12.40;;;11.40;;
19089;SDS011;9677;50.656;13.064;2023-03-12T04:09:48;12.60;;;11.60;;
19089;SDS011;9677;50.656;13.064;2023-03-12T04:12:17;12.30;;;11.30;;
19089;SDS011;9677;50.656;13.064;2023-03-12T04:14:45;12.70;;;11.70;;
19089;SDS011;9677;50.656;13.064;2023-03-12T04:17:21;12.73;;;11.40;;
19089;SDS011;9677;50.656;13.064;2023-03-12T04:19:50;13.00;;;12.00;;
19089;SDS011;9677;50.656;13.064;2023-03-12T04:22:19;12.33;;;11.30;;
19089;SDS011;9677;50.656;13.064;2023-03-12T04:25:24;12.00;;;11.10;;
19089;SDS011;9677;50.656;13.064;2023-03-12T04:27:53;12.07;;;11.17;;
19089;SDS011;9677;50.656;13.064;2023-03-12T04:30:22;12.10;;;11.10;;
19089;SDS011;9677;50.656;13.064;2023-03-12T04:32:59;13.03;;;11.97;;
19089;SDS011;9677;50.656;13.064;2023-03-12T04:35:48;13.43;;;12.33;;
19089;SDS011;9677;50.656;13.064;2023-03-12T04:38:51;12.63;;;11.63;;
19089;SDS011;9677;50.656;13.064;2023-03-12T04:41:39;12.63;;;11.63;;
19089;SDS011;9677;50.656;13.064;2023-03-12T04:44:12;12.60;;;11.60;;
19089;SDS011;9677;50.656;13.064;2023-03-12T04:46:43;12.30;;;11.30;;
19089;SDS011;9677;50.656;13.064;2023-03-12T04:50:07;12.53;;;11.53;;
19089;SDS011;9677;50.656;13.064;2023-03-12T04:52:56;12.57;;;11.57;;
19089;SDS011;9677;50.656;13.064;2023-03-12T04:56:07;12.50;;;11.50;;
19089;SDS011;9677;50.656;13.064;2023-03-12T04:58:37;12.83;;;11.83;;
19089;SDS011;9677;50.656;13.064;2023-03-12T05:01:06;12.83;;;11.83;;
19089;SDS011;9677;50.656;13.064;2023-03-12T05:03:38;12.23;;;11.20;;
19089;SDS011;9677;50.656;13.064;2023-03-12T05:06:08;12.43;;;11.43;;
19089;SDS011;9677;50.656;13.064;2023-03-12T05:08:36;13.00;;;11.90;;
19089;SDS011;9677;50.656;13.064;2023-03-12T05:11:05;12.30;;;11.30;;
19089;SDS011;9677;50.656;13.064;2023-03-12T05:13:34;12.53;;;11.53;;
19089;SDS011;9677;50.656;13.064;2023-03-12T05:16:03;12.43;;;11.43;;
19089;SDS011;9677;50.656;13.064;2023-03-12T05:18:32;12.27;;;11.27;;
19089;SDS011;9677;50.656;13.064;2023-03-12T05:21:02;12.97;;;11.97;;
19089;SDS011;9677;50.656;13.064;2023-03-12T05:23:35;12.43;;;11.43;;
19089;SDS011;9677;50.656;13.064;2023-03-12T05:26:05;12.97;;;11.87;;
19089;SDS011;9677;50.656;13.064;2023-03-12T05:28:34;12.43;;;11.43;;
19089;SDS011;9677;50.656;13.064;2023-03-12T05:31:17;12.83;;;11.83;;
19089;SDS011;9677;50.656;13.064;2023-03-12T05:33:47;12.77;;;11.77;;
19089;SDS011;9677;50.656;13.064;2023-03-12T05:36:19;12.60;;;11.60;;
19089;SDS011;9677;50.656;13.064;2023-03-12T05:38:49;12.20;;;11.30;;
19089;SDS011;9677;50.656;13.064;2023-03-12T05:41:20;12.50;;;11.50;;
19089;SDS011;9677;50.656;13.064;2023-03-12T05:43:54;12.40;;;11.40;;
19089;SDS011;9677;50.656;13.064;2023-03-12T05:46:26;12.83;;;11.83;;
19089;SDS011;9677;50.656;13.064;2023-03-12T05:48:57;12.43;;;11.37;;
19089;SDS011;9677;50.656;13.064;2023-03-12T05:51:27;12.93;;;11.93;;
19089;SDS011;9677;50.656;13.064;2023-03-12T05:53:58;12.70;;;11.60;;
19089;SDS011;9677;50.656;13.064;2023-03-12T05:56:27;12.50;;;11.50;;
19089;SDS011;9677;50.656;13.064;2023-03-12T05:58:57;12.50;;;11.50;;
19089;SDS011;9677;50.656;13.064;2023-03-12T06:01:27;12.67;;;11.50;;
19089;SDS011;9677;50.656;13.064;2023-03-12T06:04:00;12.80;;;11.80;;
19089;SDS011;9677;50.656;13.064;2023-03-12T06:06:29;12.60;;;11.60;;
19089;SDS011;9677;50.656;13.064;2023-03-12T06:09:00;13.50;;;12.50;;
19089;SDS011;9677;50.656;13.064;2023-03-12T06:11:32;12.80;;;11.80;;
19089;SDS011;9677;50.656;13.064;2023-03-12T06:14:02;12.30;;;11.30;;
19089;SDS011;9677;50.656;13.064;2023-03-12T06:16:33;12.90;;;11.80;;
19089;SDS011;9677;50.656;13.064;2023-03-12T06:19:02;12.30;;;11.30;;
19089;SDS011;9677;50.656;13.064;2023-03-12T06:21:33;12.90;;;11.90;;
19089;SDS011;9677;50.656;13.064;2023-03-12T06:24:07;12.37;;;11.37;;
19089;SDS011;9677;50.656;13.064;2023-03-12T06:26:41;12.70;;;11.70;;
19089;SDS011;9677;50.656;13.064;2023-03-12T06:29:10;12.40;;;11.40;;
19089;SDS011;9677;50.656;13.064;2023-03-12T06:31:38;13.20;;;12.07;;
19089;SDS011;9677;50.656;13.064;2023-03-12T06:34:07;12.00;;;11.10;;
19089;SDS011;9677;50.656;13.064;2023-03-12T06:36:36;12.40;;;11.40;;
19089;SDS011;9677;50.656;13.064;2023-03-12T06:39:06;12.53;;;11.53;;
19089;SDS011;9677;50.656;13.064;2023-03-12T06:41:35;12.57;;;11.57;;
19089;SDS011;9677;50.656;13.064;2023-03-12T06:44:04;12.40;;;11.40;;
19089;SDS011;9677;50.656;13.064;2023-03-12T06:46:32;12.30;;;11.30;;
19089;SDS011;9677;50.656;13.064;2023-03-12T06:49:01;12.43;;;11.43;;
19089;SDS011;9677;50.656;13.064;2023-03-12T06:51:29;12.30;;;11.30;;
19089;SDS011;9677;50.656;13.064;2023-03-12T06:53:58;12.20;;;11.20;;
19089;SDS011;9677;50.656;13.064;2023-03-12T06:56:29;12.00;;;11.00;;
19089;SDS011;9677;50.656;13.064;2023-03-12T06:58:59;12.67;;;11.67;;
19089;SDS011;9677;50.656;13.064;2023-03-12T07:01:27;12.87;;;11.87;;
19089;SDS011;9677;50.656;13.064;2023-03-12T07:03:56;12.93;;;11.73;;
19089;SDS011;9677;50.656;13.064;2023-03-12T07:06:24;12.80;;;11.80;;
19089;SDS011;9677;50.656;13.064;2023-03-12T07:08:53;12.43;;;11.43;;
19089;SDS011;9677;50.656;13.064;2023-03-12T07:11:21;12.80;;;11.80;;
19089;SDS011;9677;50.656;13.064;2023-03-12T07:13:51;12.10;;;11.10;;
19089;SDS011;9677;50.656;13.064;2023-03-12T07:16:19;12.20;;;11.20;;
19089;SDS011;9677;50.656;13.064;2023-03-12T07:18:48;12.60;;;11.60;;
19089;SDS011;9677;50.656;13.064;2023-03-12T07:21:16;12.40;;;11.40;;
19089;SDS011;9677;50.656;13.064;2023-03-12T07:23:48;11.90;;;11.00;;
19089;SDS011;9677;50.656;13.064;2023-03-12T07:26:17;12.00;;;11.00;;
19089;SDS011;9677;50.656;13.064;2023-03-12T07:28:46;12.23;;;11.23;;
19089;SDS011;9677;50.656;13.064;2023-03-12T07:31:16;12.23;;;11.23;;
19089;SDS011;9677;50.656;13.064;2023-03-12T07:33:44;12.80;;;11.70;;
19089;SDS011;9677;50.656;13.064;2023-03-12T07:36:13;12.00;;;11.00;;
19089;SDS011;9677;50.656;13.064;2023-03-12T07:38:41;12.00;;;11.10;;
19089;SDS011;9677;50.656;13.064;2023-03-12T07:41:10;12.20;;;11.20;;
19089;SDS011;9677;50.656;13.064;2023-03-12T07:43:39;13.20;;;12.10;;
19089;SDS011;9677;50.656;13.064;2023-03-12T07:46:07;11.80;;;10.80;;
19089;SDS011;9677;50.656;13.064;2023-03-12T07:48:37;12.53;;;11.53;;
19089;SDS011;9677;50.656;13.064;2023-03-12T07:51:09;12.60;;;11.60;;
19089;SDS011;9677;50.656;13.064;2023-03-12T07:53:38;12.40;;;11.40;;
19089;SDS011;9677;50.656;13.064;2023-03-12T07:56:06;12.10;;;11.00;;
19089;SDS011;9677;50.656;13.064;2023-03-12T07:58:35;12.57;;;11.57;;
19089;SDS011;9677;50.656;13.064;2023-03-12T08:01:05;12.20;;;11.20;;
19089;SDS011;9677;50.656;13.064;2023-03-12T08:03:34;12.27;;;11.27;;
19089;SDS011;9677;50.656;13.064;2023-03-12T08:06:06;11.90;;;10.90;;
19089;SDS011;9677;50.656;13.064;2023-03-12T08:08:35;11.93;;;10.93;;
19089;SDS011;9677;50.656;13.064;2023-03-12T08:11:08;13.17;;;12.17;;
19089;SDS011;9677;50.656;13.064;2023-03-12T08:13:37;11.80;;;10.90;;
19089;SDS011;9677;50.656;13.064;2023-03-12T08:16:05;11.90;;;10.90;;
19089;SDS011;9677;50.656;13.064;2023-03-12T08:18:35;11.90;;;10.90;;
19089;SDS011;9677;50.656;13.064;2023-03-12T08:21:04;11.97;;;10.97;;
19089;SDS011;9677;50.656;13.064;2023-03-12T08:23:34;11.80;;;10.80;;
19089;SDS011;9677;50.656;13.064;2023-03-12T08:26:04;11.90;;;10.90;;
19089;SDS011;9677;50.656;13.064;2023-03-12T08:28:35;11.70;;;10.70;;
19089;SDS011;9677;50.656;13.064;2023-03-12T08:31:04;12.30;;;11.20;;
19089;SDS011;9677;50.656;13.064;2023-03-12T08:33:35;12.07;;;11.07;;
19089;SDS011;9677;50.656;13.064;2023-03-12T08:36:27;11.93;;;10.93;;
19089;SDS011;9677;50.656;13.064;2023-03-12T08:38:59;12.37;;;11.37;;
19089;SDS011;9677;50.656;13.064;2023-03-12T08:41:31;12.47;;;11.47;;
19089;SDS011;9677;50.656;13.064;2023-03-12T08:44:00;12.20;;;11.10;;
19089;SDS011;9677;50.656;13.064;2023-03-12T08:46:29;11.67;;;10.67;;
19089;SDS011;9677;50.656;13.064;2023-03-12T08:49:16;11.90;;;10.90;;
19089;SDS011;9677;50.656;13.064;2023-03-12T08:52:55;12.00;;;11.00;;
19089;SDS011;9677;50.656;13.064;2023-03-12T08:56:56;12.10;;;11.10;;
19089;SDS011;9677;50.656;13.064;2023-03-12T08:59:43;12.43;;;11.33;;
19089;SDS011;9677;50.656;13.064;2023-03-12T09:12:05;11.70;;;10.60;;
19089;SDS011;9677;50.656;13.064;2023-03-12T09:15:04;10.90;;;10.00;;
19089;SDS011;9677;50.656;13.064;2023-03-12T09:17:36;11.50;;;10.60;;
19089;SDS011;9677;50.656;13.064;2023-03-12T09:20:06;11.63;;;10.63;;
19089;SDS011;9677;50.656;13.064;2023-03-12T09:22:39;10.80;;;9.90;;
19089;SDS011;9677;50.656;13.064;2023-03-12T09:25:09;11.73;;;10.73;;
19089;SDS011;9677;50.656;13.064;2023-03-12T09:27:40;11.40;;;10.40;;
19089;SDS011;9677;50.656;13.064;2023-03-12T09:30:11;12.00;;;11.00;;
19089;SDS011;9677;50.656;13.064;2023-03-12T09:32:41;11.50;;;10.50;;
19089;SDS011;9677;50.656;13.064;2023-03-12T09:35:11;11.87;;;10.87;;
19089;SDS011;9677;50.656;13.064;2023-03-12T09:37:42;11.40;;;10.40;;
19089;SDS011;9677;50.656;13.064;2023-03-12T09:40:15;10.93;;;9.93;;
19089;SDS011;9677;50.656;13.064;2023-03-12T09:42:49;11.40;;;10.43;;
19089;SDS011;9677;50.656;13.064;2023-03-12T09:45:23;11.60;;;10.50;;
19089;SDS011;9677;50.656;13.064;2023-03-12T09:47:54;11.03;;;10.03;;
19089;SDS011;9677;50.656;13.064;2023-03-12T09:50:31;12.23;;;11.13;;
19089;SDS011;9677;50.656;13.064;2023-03-12T09:53:08;12.10;;;11.10;;
19089;SDS011;9677;50.656;13.064;2023-03-12T09:55:44;12.30;;;11.10;;
19089;SDS011;9677;50.656;13.064;2023-03-12T09:58:18;11.53;;;10.60;;
19089;SDS011;9677;50.656;13.064;2023-03-12T10:00:54;11.50;;;10.50;;
19089;SDS011;9677;50.656;13.064;2023-03-12T10:03:44;11.00;;;10.10;;
19089;SDS011;9677;50.656;13.064;2023-03-12T10:06:38;11.23;;;10.33;;
19089;SDS011;9677;50.656;13.064;2023-03-12T10:09:34;10.83;;;9.93;;
19089;SDS011;9677;50.656;13.064;2023-03-12T10:16:00;11.50;;;10.40;;
19089;SDS011;9677;50.656;13.064;2023-03-12T10:18:49;10.90;;;9.83;;
19089;SDS011;9677;50.656;13.064;2023-03-12T10:21:32;11.30;;;10.30;;
19089;SDS011;9677;50.656;13.064;2023-03-12T10:24:22;12.03;;;10.03;;
19089;SDS011;9677;50.656;13.064;2023-03-12T10:27:17;11.10;;;10.20;;
19089;SDS011;9677;50.656;13.064;2023-03-12T10:29:47;11.40;;;10.40;;
19089;SDS011;9677;50.656;13.064;2023-03-12T10:32:22;10.70;;;9.80;;
19089;SDS011;9677;50.656;13.064;2023-03-12T10:34:55;10.93;;;10.00;;
19089;SDS011;9677;50.656;13.064;2023-03-12T10:37:28;10.53;;;9.53;;
19089;SDS011;9677;50.656;13.064;2023-03-12T10:40:01;10.87;;;9.97;;
19089;SDS011;9677;50.656;13.064;2023-03-12T10:42:39;11.30;;;10.30;;
19089;SDS011;9677;50.656;13.064;2023-03-12T10:45:13;11.00;;;10.00;;
19089;SDS011;9677;50.656;13.064;2023-03-12T10:47:52;10.77;;;9.87;;
19089;SDS011;9677;50.656;13.064;2023-03-12T10:50:24;10.77;;;9.87;;
19089;SDS011;9677;50.656;13.064;2023-03-12T10:55:59;11.27;;;10.27;;
19089;SDS011;9677;50.656;13.064;2023-03-12T10:58:34;10.73;;;9.83;;
19089;SDS011;9677;50.656;13.064;2023-03-12T11:01:06;11.27;;;10.27;;
19089;SDS011;9677;50.656;13.064;2023-03-12T11:03:48;10.30;;;9.40;;
19089;SDS011;9677;50.656;13.064;2023-03-12T11:06:21;11.13;;;10.23;;
19089;SDS011;9677;50.656;13.064;2023-03-12T11:09:01;11.13;;;10.23;;
19089;SDS011;9677;50.656;13.064;2023-03-12T11:11:42;10.97;;;10.07;;
19089;SDS011;9677;50.656;13.064;2023-03-12T11:14:15;11.23;;;10.23;;
19089;SDS011;9677;50.656;13.064;2023-03-12T11:16:46;10.87;;;9.97;;
19089;SDS011;9677;50.656;13.064;2023-03-12T11:19:24;11.47;;;10.43;;
19089;SDS011;9677;50.656;13.064;2023-03-12T11:21:55;10.83;;;9.87;;
19089;SDS011;9677;50.656;13.064;2023-03-12T11:24:26;10.73;;;9.77;;
19089;SDS011;9677;50.656;13.064;2023-03-12T11:26:56;11.20;;;10.30;;
19089;SDS011;9677;50.656;13.064;2023-03-12T11:29:30;10.90;;;9.80;;
19089;SDS011;9677;50.656;13.064;2023-03-12T11:32:05;10.80;;;9.90;;
19089;SDS011;9677;50.656;13.064;2023-03-12T11:34:43;11.10;;;9.90;;
19089;SDS011;9677;50.656;13.064;2023-03-12T11:37:18;10.80;;;9.80;;
19089;SDS011;9677;50.656;13.064;2023-03-12T11:39:57;10.93;;;10.03;;
19089;SDS011;9677;50.656;13.064;2023-03-12T11:42:44;10.77;;;9.87;;
19089;SDS011;9677;50.656;13.064;2023-03-12T11:45:25;10.90;;;10.00;;
19089;SDS011;9677;50.656;13.064;2023-03-12T11:48:03;10.87;;;9.97;;
19089;SDS011;9677;50.656;13.064;2023-03-12T11:50:45;10.70;;;9.80;;
19089;SDS011;9677;50.656;13.064;2023-03-12T11:53:27;11.10;;;10.10;;
19089;SDS011;9677;50.656;13.064;2023-03-12T11:56:21;10.40;;;9.50;;
19089;SDS011;9677;50.656;13.064;2023-03-12T11:59:13;10.60;;;9.70;;
19089;SDS011;9677;50.656;13.064;2023-03-12T12:02:07;11.40;;;10.40;;
19089;SDS011;9677;50.656;13.064;2023-03-12T12:07:54;11.27;;;10.20;;
19089;SDS011;9677;50.656;13.064;2023-03-12T12:10:38;11.00;;;10.10;;
19089;SDS011;9677;50.656;13.064;2023-03-12T12:13:17;10.77;;;9.87;;
19089;SDS011;9677;50.656;13.064;2023-03-12T12:15:56;10.53;;;9.53;;
19089;SDS011;9677;50.656;13.064;2023-03-12T12:18:43;11.30;;;10.30;;
19089;SDS011;9677;50.656;13.064;2023-03-12T12:21:28;10.90;;;9.97;;
19089;SDS011;9677;50.656;13.064;2023-03-12T12:24:19;11.23;;;9.97;;
19089;SDS011;9677;50.656;13.064;2023-03-12T12:27:04;12.70;;;10.47;;
19089;SDS011;9677;50.656;13.064;2023-03-12T12:29:53;11.37;;;10.37;;
19089;SDS011;9677;50.656;13.064;2023-03-12T12:32:35;10.50;;;9.50;;
19089;SDS011;9677;50.656;13.064;2023-03-12T12:35:24;10.60;;;9.60;;
19089;SDS011;9677;50.656;13.064;2023-03-12T12:37:57;10.97;;;9.87;;
19089;SDS011;9677;50.656;13.064;2023-03-12T12:40:32;11.23;;;10.00;;
19089;SDS011;9677;50.656;13.064;2023-03-12T12:43:10;11.40;;;10.30;;
19089;SDS011;9677;50.656;13.064;2023-03-12T12:45:51;11.20;;;10.20;;
19089;SDS011;9677;50.656;13.064;2023-03-12T12:48:24;10.60;;;9.70;;
19089;SDS011;9677;50.656;13.064;2023-03-12T12:50:59;10.87;;;9.87;;
19089;SDS011;9677;50.656;13.064;2023-03-12T12:53:32;12.23;;;9.80;;
19089;SDS011;9677;50.656;13.064;2023-03-12T12:56:10;13.90;;;9.70;;
19089;SDS011;9677;50.656;13.064;2023-03-12T12:58:53;11.03;;;10.03;;
19089;SDS011;9677;50.656;13.064;2023-03-12T13:01:30;10.83;;;9.93;;
19089;SDS011;9677;50.656;13.064;2023-03-12T13:04:03;10.60;;;9.70;;
19089;SDS011;9677;50.656;13.064;2023-03-12T13:09:24;11.00;;;10.00;;
19089;SDS011;9677;50.656;13.064;2023-03-12T13:12:17;11.17;;;9.97;;
19089;SDS011;9677;50.656;13.064;2023-03-12T13:14:52;10.37;;;9.47;;
19089;SDS011;9677;50.656;13.064;2023-03-12T13:17:30;10.80;;;9.80;;
19089;SDS011;9677;50.656;13.064;2023-03-12T13:20:11;10.73;;;9.73;;
19089;SDS011;9677;50.656;13.064;2023-03-12T13:25:52;11.17;;;10.20;;
19089;SDS011;9677;50.656;13.064;2023-03-12T13:28:30;10.70;;;9.80;;
19089;SDS011;9677;50.656;13.064;2023-03-12T13:31:07;10.63;;;9.73;;
19089;SDS011;9677;50.656;13.064;2023-03-12T13:37:18;10.83;;;9.83;;
19089;SDS011;9677;50.656;13.064;2023-03-12T13:43:32;10.60;;;9.70;;
19089;SDS011;9677;50.656;13.064;2023-03-12T13:46:35;10.97;;;9.97;;
19089;SDS011;9677;50.656;13.064;2023-03-12T13:49:12;10.83;;;9.83;;
19089;SDS011;9677;50.656;13.064;2023-03-12T13:51:52;11.13;;;10.13;;
19089;SDS011;9677;50.656;13.064;2023-03-12T13:54:28;10.50;;;9.60;;
19089;SDS011;9677;50.656;13.064;2023-03-12T13:57:02;11.20;;;10.30;;
19089;SDS011;9677;50.656;13.064;2023-03-12T13:59:42;10.70;;;9.80;;
19089;SDS011;9677;50.656;13.064;2023-03-12T14:02:15;10.53;;;9.63;;
19089;SDS011;9677;50.656;13.064;2023-03-12T14:04:49;10.83;;;9.93;;
19089;SDS011;9677;50.656;13.064;2023-03-12T14:07:26;11.67;;;10.67;;
19089;SDS011;9677;50.656;13.064;2023-03-12T14:10:15;10.80;;;9.90;;
19089;SDS011;9677;50.656;13.064;2023-03-12T14:12:57;11.37;;;10.37;;
19089;SDS011;9677;50.656;13.064;2023-03-12T14:15:43;11.20;;;10.10;;
19089;SDS011;9677;50.656;13.064;2023-03-12T14:18:20;10.70;;;9.70;;
19089;SDS011;9677;50.656;13.064;2023-03-12T14:20:52;10.83;;;9.83;;
19089;SDS011;9677;50.656;13.064;2023-03-12T14:23:26;11.17;;;10.27;;
19089;SDS011;9677;50.656;13.064;2023-03-12T14:25:59;11.30;;;10.17;;
19089;SDS011;9677;50.656;13.064;2023-03-12T14:28:29;10.47;;;9.57;;
19089;SDS011;9677;50.656;13.064;2023-03-12T14:31:08;10.93;;;10.00;;
19089;SDS011;9677;50.656;13.064;2023-03-12T14:33:44;11.03;;;10.00;;
19089;SDS011;9677;50.656;13.064;2023-03-12T14:36:21;11.17;;;10.17;;
19089;SDS011;9677;50.656;13.064;2023-03-12T14:38:57;11.20;;;10.20;;
19089;SDS011;9677;50.656;13.064;2023-03-12T14:41:37;11.63;;;10.63;;
19089;SDS011;9677;50.656;13.064;2023-03-12T14:44:17;10.70;;;9.80;;
19089;SDS011;9677;50.656;13.064;2023-03-12T14:46:57;11.10;;;10.10;;
19089;SDS011;9677;50.656;13.064;2023-03-12T14:49:27;10.50;;;9.60;;
19089;SDS011;9677;50.656;13.064;2023-03-12T14:51:58;11.50;;;10.37;;
19089;SDS011;9677;50.656;13.064;2023-03-12T14:54:26;11.20;;;10.30;;
19089;SDS011;9677;50.656;13.064;2023-03-12T14:56:55;11.30;;;10.40;;
19089;SDS011;9677;50.656;13.064;2023-03-12T14:59:25;11.37;;;10.37;;
19089;SDS011;9677;50.656;13.064;2023-03-12T15:01:59;10.13;;;9.33;;
19089;SDS011;9677;50.656;13.064;2023-03-12T15:04:34;10.83;;;9.80;;
19089;SDS011;9677;50.656;13.064;2023-03-12T15:07:03;10.70;;;9.80;;
19089;SDS011;9677;50.656;13.064;2023-03-12T15:09:35;10.97;;;10.07;;
19089;SDS011;9677;50.656;13.064;2023-03-12T15:12:04;10.87;;;9.93;;
19089;SDS011;9677;50.656;13.064;2023-03-12T15:14:42;11.47;;;10.47;;
19089;SDS011;9677;50.656;13.064;2023-03-12T15:17:13;11.37;;;10.37;;
19089;SDS011;9677;50.656;13.064;2023-03-12T15:19:44;10.80;;;9.70;;
19089;SDS011;9677;50.656;13.064;2023-03-12T15:22:14;10.73;;;9.83;;
19089;SDS011;9677;50.656;13.064;2023-03-12T15:24:46;11.17;;;10.17;;
19089;SDS011;9677;50.656;13.064;2023-03-12T15:27:18;11.13;;;10.13;;
19089;SDS011;9677;50.656;13.064;2023-03-12T15:29:56;10.90;;;10.00;;
19089;SDS011;9677;50.656;13.064;2023-03-12T15:32:27;10.47;;;9.60;;
19089;SDS011;9677;50.656;13.064;2023-03-12T15:34:57;10.97;;;10.03;;
19089;SDS011;9677;50.656;13.064;2023-03-12T15:37:27;11.00;;;10.10;;
19089;SDS011;9677;50.656;13.064;2023-03-12T15:40:03;10.80;;;9.80;;
19089;SDS011;9677;50.656;13.064;2023-03-12T15:42:45;10.60;;;9.70;;
19089;SDS011;9677;50.656;13.064;2023-03-12T15:45:15;10.50;;;9.40;;
19089;SDS011;9677;50.656;13.064;2023-03-12T15:47:48;11.07;;;9.97;;
19089;SDS011;9677;50.656;13.064;2023-03-12T15:50:20;11.60;;;10.50;;